createdAt,value
2017-09-07T00:00:00.864Z,97.04
2017-09-07T00:00:05.125Z,96.84
2017-09-07T00:00:09.181Z,97.04
2017-09-07T00:00:13.240Z,96.94
2017-09-07T00:00:17.423Z,97.04
2017-09-07T00:00:21.740Z,97.04
2017-09-07T00:00:25.922Z,97.13
2017-09-07T00:00:29.988Z,97.13
2017-09-07T00:00:34.052Z,97.04
2017-09-07T00:00:38.110Z,96.84
2017-09-07T00:00:42.166Z,97.04
2017-09-07T00:00:46.228Z,97.04
2017-09-07T00:00:50.284Z,96.84
2017-09-07T00:00:54.468Z,96.84
2017-09-07T00:00:58.652Z,97.61
2017-09-07T00:01:02.636Z,97.61
2017-09-07T00:01:06.710Z,97.71
2017-09-07T00:01:10.680Z,97.71
2017-09-07T00:01:14.747Z,97.52
2017-09-07T00:01:18.804Z,97.71
2017-09-07T00:01:22.864Z,97.42
2017-09-07T00:01:27.058Z,97.52
2017-09-07T00:01:31.119Z,97.61
2017-09-07T00:01:35.425Z,97.8
2017-09-07T00:01:39.352Z,97.42
2017-09-07T00:01:43.671Z,97.8
2017-09-07T00:01:47.480Z,97.13
2017-09-07T00:01:51.664Z,97.13
2017-09-07T00:01:55.728Z,97.61
2017-09-07T00:01:59.542Z,97.61
2017-09-07T00:02:03.730Z,97.52
2017-09-07T00:02:07.664Z,97.42
2017-09-07T00:02:11.850Z,97.61
2017-09-07T00:02:16.314Z,97.23
2017-09-07T00:02:20.250Z,97.61
2017-09-07T00:02:24.181Z,97.61
2017-09-07T00:02:28.110Z,97.61
2017-09-07T00:02:32.171Z,97.42
2017-09-07T00:02:36.103Z,97.42
2017-09-07T00:02:39.916Z,97.23
2017-09-07T00:02:44.275Z,97.52
2017-09-07T00:02:48.331Z,97.52
2017-09-07T00:02:52.637Z,97.52
2017-09-07T00:02:56.695Z,97.52
2017-09-07T00:03:00.507Z,97.42
2017-09-07T00:03:04.666Z,97.23
2017-09-07T00:03:08.486Z,97.23
2017-09-07T00:03:12.296Z,97.61
2017-09-07T00:03:16.233Z,97.71
2017-09-07T00:03:20.431Z,97.42
2017-09-07T00:03:24.491Z,97.42
2017-09-07T00:03:28.675Z,97.42
2017-09-07T00:03:32.609Z,97.61
2017-09-07T00:03:36.671Z,97.52
2017-09-07T00:03:40.989Z,97.61
2017-09-07T00:03:45.291Z,97.61
2017-09-07T00:03:49.473Z,97.52
2017-09-07T00:03:53.656Z,97.42
2017-09-07T00:03:57.467Z,97.42
2017-09-07T00:04:01.913Z,97.33
2017-09-07T00:04:06.099Z,97.42
2017-09-07T00:04:09.905Z,97.42
2017-09-07T00:04:13.590Z,97.23
2017-09-07T00:04:17.653Z,97.13
2017-09-07T00:04:22.089Z,97.33
2017-09-07T00:04:26.030Z,97.23
2017-09-07T00:04:29.843Z,97.42
2017-09-07T00:04:33.904Z,97.52
2017-09-07T00:04:37.835Z,97.42
2017-09-07T00:04:41.765Z,97.71
2017-09-07T00:04:45.577Z,97.42
2017-09-07T00:04:49.518Z,97.42
2017-09-07T00:04:53.332Z,97.23
2017-09-07T00:04:57.511Z,97.42
2017-09-07T00:05:01.568Z,97.42
2017-09-07T00:05:05.878Z,97.52
2017-09-07T00:05:09.941Z,97.61
2017-09-07T00:05:14.005Z,97.23
2017-09-07T00:05:18.072Z,97.42
2017-09-07T00:05:22.040Z,97.52
2017-09-07T00:05:26.065Z,97.61
2017-09-07T00:05:30.251Z,97.42
2017-09-07T00:05:34.317Z,97.42
2017-09-07T00:05:38.379Z,97.42
2017-09-07T00:05:42.566Z,97.23
2017-09-07T00:05:46.617Z,97.23
2017-09-07T00:05:50.800Z,97.23
2017-09-07T00:05:54.986Z,97.23
2017-09-07T00:05:58.921Z,97.61
2017-09-07T00:06:03.032Z,97.61
2017-09-07T00:06:07.090Z,97.42
2017-09-07T00:06:11.159Z,97.61
2017-09-07T00:06:14.977Z,97.71
2017-09-07T00:06:19.031Z,97.42
2017-09-07T00:06:23.093Z,97.61
2017-09-07T00:06:27.152Z,97.42
2017-09-07T00:06:31.211Z,97.23
2017-09-07T00:06:35.275Z,97.23
2017-09-07T00:06:39.469Z,97.42
2017-09-07T00:06:43.657Z,97.13
2017-09-07T00:06:47.593Z,97.42
2017-09-07T00:06:51.799Z,97.61
2017-09-07T00:06:55.981Z,97.42
2017-09-07T00:07:00.041Z,97.13
2017-09-07T00:07:04.406Z,97.71
2017-09-07T00:07:08.255Z,97.71
2017-09-07T00:07:12.566Z,97.71
2017-09-07T00:07:16.623Z,97.52
2017-09-07T00:07:20.692Z,97.52
2017-09-07T00:07:24.746Z,97.71
2017-09-07T00:07:28.933Z,97.61
2017-09-07T00:07:32.862Z,97.61
2017-09-07T00:07:36.921Z,97.71
2017-09-07T00:07:40.861Z,97.61
2017-09-07T00:07:44.794Z,97.71
2017-09-07T00:07:48.720Z,97.61
2017-09-07T00:07:52.526Z,97.71
2017-09-07T00:07:56.461Z,97.8
2017-09-07T00:08:00.520Z,97.52
2017-09-07T00:08:04.962Z,97.8
2017-09-07T00:08:09.020Z,97.04
2017-09-07T00:08:12.826Z,96.94
2017-09-07T00:08:16.768Z,96.94
2017-09-07T00:08:20.827Z,96.94
2017-09-07T00:08:25.007Z,96.84
2017-09-07T00:08:29.445Z,96.94
2017-09-07T00:08:33.377Z,96.94
2017-09-07T00:08:37.305Z,97.71
2017-09-07T00:08:41.359Z,97.8
2017-09-07T00:08:45.291Z,97.8
2017-09-07T00:08:49.347Z,97.61
2017-09-07T00:08:53.524Z,97.04
2017-09-07T00:08:57.707Z,97.61
2017-09-07T00:09:01.763Z,97.52
2017-09-07T00:09:05.576Z,97.61
2017-09-07T00:09:09.758Z,97.52
2017-09-07T00:09:13.694Z,97.23
2017-09-07T00:09:17.880Z,96.94
2017-09-07T00:09:21.689Z,97.61
2017-09-07T00:09:25.795Z,97.04
2017-09-07T00:09:29.978Z,97.61
2017-09-07T00:09:33.913Z,97.8
2017-09-07T00:09:38.097Z,97.71
2017-09-07T00:09:42.414Z,97.8
2017-09-07T00:09:46.476Z,97.8
2017-09-07T00:09:50.666Z,97.13
2017-09-07T00:09:54.597Z,97.8
2017-09-07T00:09:58.542Z,97.04
2017-09-07T00:10:02.479Z,97.04
2017-09-07T00:10:06.411Z,97.13
2017-09-07T00:10:10.346Z,97.04
2017-09-07T00:10:14.280Z,97.04
2017-09-07T00:10:18.213Z,96.94
2017-09-07T00:10:22.147Z,97.13
2017-09-07T00:10:26.079Z,96.94
2017-09-07T00:10:30.262Z,97.13
2017-09-07T00:10:34.317Z,96.94
2017-09-07T00:10:38.373Z,97.04
2017-09-07T00:10:42.693Z,96.94
2017-09-07T00:10:46.374Z,97.04
2017-09-07T00:10:50.306Z,96.94
2017-09-07T00:10:54.116Z,97.04
2017-09-07T00:10:58.170Z,97.04
2017-09-07T00:11:02.331Z,96.94
2017-09-07T00:11:06.553Z,96.75
2017-09-07T00:11:10.737Z,96.84
2017-09-07T00:11:14.921Z,96.94
2017-09-07T00:11:18.855Z,96.94
2017-09-07T00:11:22.834Z,96.94
2017-09-07T00:11:26.897Z,97.04
2017-09-07T00:11:30.954Z,96.84
2017-09-07T00:11:35.017Z,96.94
2017-09-07T00:11:39.077Z,97.13
2017-09-07T00:11:43.137Z,97.13
2017-09-07T00:11:47.065Z,97.04
2017-09-07T00:11:51.004Z,96.94
2017-09-07T00:11:54.941Z,96.94
2017-09-07T00:11:59.246Z,96.84
2017-09-07T00:12:03.554Z,96.94
2017-09-07T00:12:07.492Z,96.84
2017-09-07T00:12:11.422Z,97.13
2017-09-07T00:12:15.475Z,97.13
2017-09-07T00:12:19.650Z,97.04
2017-09-07T00:12:23.713Z,97.13
2017-09-07T00:12:28.036Z,96.75
2017-09-07T00:12:32.088Z,96.94
2017-09-07T00:12:36.267Z,97.13
2017-09-07T00:12:40.322Z,96.84
2017-09-07T00:12:44.378Z,97.13
2017-09-07T00:12:48.312Z,96.84
2017-09-07T00:12:52.366Z,97.04
2017-09-07T00:12:56.554Z,96.94
2017-09-07T00:13:00.739Z,97.04
2017-09-07T00:13:04.702Z,97.61
2017-09-07T00:13:08.762Z,97.61
2017-09-07T00:13:12.822Z,97.52
2017-09-07T00:13:16.502Z,97.52
2017-09-07T00:13:20.692Z,97.8
2017-09-07T00:13:24.875Z,97.8
2017-09-07T00:13:28.807Z,96.84
2017-09-07T00:13:32.745Z,97.13
2017-09-07T00:13:36.805Z,97.8
2017-09-07T00:13:40.864Z,97.04
2017-09-07T00:13:44.672Z,97.04
2017-09-07T00:13:48.859Z,96.94
2017-09-07T00:13:52.914Z,96.94
2017-09-07T00:13:56.971Z,96.84
2017-09-07T00:14:01.029Z,96.94
2017-09-07T00:14:05.367Z,97.04
2017-09-07T00:14:09.298Z,96.84
2017-09-07T00:14:13.765Z,97.04
2017-09-07T00:14:17.823Z,96.84
2017-09-07T00:14:21.754Z,96.75
2017-09-07T00:14:25.689Z,97.13
2017-09-07T00:14:30.000Z,97.04
2017-09-07T00:14:34.187Z,96.84
2017-09-07T00:14:38.242Z,97.13
2017-09-07T00:14:42.048Z,96.84
2017-09-07T00:14:45.853Z,96.84
2017-09-07T00:14:49.914Z,96.84
2017-09-07T00:14:53.977Z,96.94
2017-09-07T00:14:58.281Z,96.84
2017-09-07T00:15:02.670Z,96.84
2017-09-07T00:15:06.603Z,96.84
2017-09-07T00:15:10.538Z,96.84
2017-09-07T00:15:14.597Z,96.94
2017-09-07T00:15:18.904Z,96.66
2017-09-07T00:15:23.084Z,97.04
2017-09-07T00:15:27.142Z,96.75
2017-09-07T00:15:31.196Z,97.04
2017-09-07T00:15:35.124Z,97.23
2017-09-07T00:15:39.177Z,97.04
2017-09-07T00:15:43.240Z,97.04
2017-09-07T00:15:47.300Z,96.94
2017-09-07T00:15:51.359Z,96.94
2017-09-07T00:15:55.290Z,97.04
2017-09-07T00:15:59.217Z,97.04
2017-09-07T00:16:03.277Z,97.13
2017-09-07T00:16:07.338Z,96.94
2017-09-07T00:16:11.523Z,96.84
2017-09-07T00:16:15.714Z,97.13
2017-09-07T00:16:19.770Z,97.04
2017-09-07T00:16:23.707Z,96.94
2017-09-07T00:16:27.765Z,97.04
2017-09-07T00:16:31.943Z,96.94
2017-09-07T00:16:36.002Z,97.04
2017-09-07T00:16:40.312Z,97.04
2017-09-07T00:16:44.621Z,96.84
2017-09-07T00:16:48.811Z,96.94
2017-09-07T00:16:52.873Z,96.84
2017-09-07T00:16:56.933Z,96.66
2017-09-07T00:17:00.991Z,96.94
2017-09-07T00:17:04.807Z,96.94
2017-09-07T00:17:08.988Z,97.13
2017-09-07T00:17:13.177Z,96.84
2017-09-07T00:17:17.239Z,96.94
2017-09-07T00:17:21.049Z,97.04
2017-09-07T00:17:25.232Z,97.04
2017-09-07T00:17:29.288Z,97.04
2017-09-07T00:17:33.480Z,96.94
2017-09-07T00:17:37.657Z,96.94
2017-09-07T00:17:42.083Z,97.04
2017-09-07T00:17:46.271Z,96.94
2017-09-07T00:17:49.951Z,96.94
2017-09-07T00:17:53.878Z,96.94
2017-09-07T00:17:57.811Z,97.04
2017-09-07T00:18:02.116Z,96.94
2017-09-07T00:18:06.056Z,96.56
2017-09-07T00:18:10.111Z,96.94
2017-09-07T00:18:14.044Z,96.56
2017-09-07T00:18:17.978Z,96.56
2017-09-07T00:18:22.162Z,96.47
2017-09-07T00:18:26.098Z,96.56
2017-09-07T00:18:30.526Z,96.56
2017-09-07T00:18:34.587Z,96.56
2017-09-07T00:18:38.394Z,96.56
2017-09-07T00:18:42.361Z,96.56
2017-09-07T00:18:46.171Z,96.56
2017-09-07T00:18:50.233Z,96.56
2017-09-07T00:18:54.420Z,96.56
2017-09-07T00:18:58.356Z,96.56
2017-09-07T00:19:02.841Z,96.56
2017-09-07T00:19:06.899Z,96.56
2017-09-07T00:19:10.963Z,96.56
2017-09-07T00:19:14.894Z,96.75
2017-09-07T00:19:18.953Z,96.94
2017-09-07T00:19:23.011Z,97.13
2017-09-07T00:19:26.947Z,97.13
2017-09-07T00:19:31.009Z,97.13
2017-09-07T00:19:34.815Z,97.04
2017-09-07T00:19:39.000Z,97.13
2017-09-07T00:19:42.809Z,97.13
2017-09-07T00:19:46.741Z,97.04
2017-09-07T00:19:50.802Z,97.04
2017-09-07T00:19:54.735Z,97.04
2017-09-07T00:19:58.796Z,97.13
2017-09-07T00:20:03.061Z,97.04
2017-09-07T00:20:07.369Z,96.56
2017-09-07T00:20:11.180Z,96.94
2017-09-07T00:20:15.241Z,97.04
2017-09-07T00:20:19.175Z,96.56
2017-09-07T00:20:22.982Z,96.66
2017-09-07T00:20:26.787Z,96.56
2017-09-07T00:20:30.973Z,97.04
2017-09-07T00:20:34.911Z,96.56
2017-09-07T00:20:39.089Z,96.75
2017-09-07T00:20:43.023Z,96.56
2017-09-07T00:20:46.955Z,96.56
2017-09-07T00:20:51.174Z,96.47
2017-09-07T00:20:55.231Z,96.84
2017-09-07T00:20:59.037Z,96.56
2017-09-07T00:21:02.945Z,96.56
2017-09-07T00:21:06.881Z,96.94
2017-09-07T00:21:10.807Z,96.84
2017-09-07T00:21:14.870Z,96.84
2017-09-07T00:21:18.925Z,96.84
2017-09-07T00:21:22.856Z,96.75
2017-09-07T00:21:27.042Z,96.84
2017-09-07T00:21:31.350Z,96.75
2017-09-07T00:21:35.408Z,96.75
2017-09-07T00:21:39.464Z,96.84
2017-09-07T00:21:43.410Z,96.75
2017-09-07T00:21:47.469Z,96.75
2017-09-07T00:21:51.652Z,96.75
2017-09-07T00:21:55.836Z,97.04
2017-09-07T00:21:59.896Z,97.13
2017-09-07T00:22:03.960Z,96.56
2017-09-07T00:22:08.152Z,96.66
2017-09-07T00:22:12.082Z,96.75
2017-09-07T00:22:16.015Z,97.23
2017-09-07T00:22:19.948Z,96.66
2017-09-07T00:22:24.008Z,97.13
2017-09-07T00:22:28.322Z,96.84
2017-09-07T00:22:32.256Z,96.47
2017-09-07T00:22:35.941Z,96.56
2017-09-07T00:22:39.753Z,96.94
2017-09-07T00:22:43.812Z,96.47
2017-09-07T00:22:47.746Z,96.66
2017-09-07T00:22:51.814Z,96.84
2017-09-07T00:22:55.873Z,96.56
2017-09-07T00:22:59.816Z,96.47
2017-09-07T00:23:03.796Z,96.47
2017-09-07T00:23:07.730Z,96.56
2017-09-07T00:23:11.797Z,96.66
2017-09-07T00:23:16.254Z,96.56
2017-09-07T00:23:20.313Z,96.56
2017-09-07T00:23:24.505Z,96.94
2017-09-07T00:23:28.564Z,96.84
2017-09-07T00:23:32.743Z,96.75
2017-09-07T00:23:36.928Z,97.13
2017-09-07T00:23:40.737Z,96.94
2017-09-07T00:23:44.793Z,96.94
2017-09-07T00:23:48.862Z,97.33
2017-09-07T00:23:52.544Z,96.18
2017-09-07T00:23:56.609Z,96.18
2017-09-07T00:24:00.288Z,96.75
2017-09-07T00:24:04.396Z,97.23
2017-09-07T00:24:08.460Z,96.75
2017-09-07T00:24:12.647Z,97.23
2017-09-07T00:24:16.707Z,96.18
2017-09-07T00:24:20.514Z,96.18
2017-09-07T00:24:24.322Z,96.94
2017-09-07T00:24:28.376Z,97.23
2017-09-07T00:24:32.431Z,96.94
2017-09-07T00:24:36.494Z,96.94
2017-09-07T00:24:40.309Z,97.04
2017-09-07T00:24:44.489Z,96.66
2017-09-07T00:24:48.545Z,97.04
2017-09-07T00:24:52.728Z,96.66
2017-09-07T00:24:56.658Z,96.56
2017-09-07T00:25:00.717Z,96.94
2017-09-07T00:25:04.916Z,96.56
2017-09-07T00:25:08.854Z,96.75
2017-09-07T00:25:13.034Z,96.94
2017-09-07T00:25:16.977Z,96.94
2017-09-07T00:25:20.939Z,96.94
2017-09-07T00:25:24.837Z,96.84
2017-09-07T00:25:29.023Z,96.56
2017-09-07T00:25:32.952Z,96.94
2017-09-07T00:25:37.006Z,96.75
2017-09-07T00:25:41.068Z,96.75
2017-09-07T00:25:45.010Z,96.75
2017-09-07T00:25:48.945Z,96.94
2017-09-07T00:25:52.878Z,97.04
2017-09-07T00:25:56.811Z,96.94
2017-09-07T00:26:00.869Z,96.94
2017-09-07T00:26:05.178Z,97.04
2017-09-07T00:26:09.117Z,96.66
2017-09-07T00:26:13.312Z,96.66
2017-09-07T00:26:17.625Z,97.04
2017-09-07T00:26:21.681Z,96.94
2017-09-07T00:26:25.747Z,97.04
2017-09-07T00:26:30.056Z,96.56
2017-09-07T00:26:34.240Z,96.56
2017-09-07T00:26:38.293Z,96.66
2017-09-07T00:26:42.598Z,96.66
2017-09-07T00:26:46.530Z,96.75
2017-09-07T00:26:50.466Z,96.56
2017-09-07T00:26:54.396Z,96.56
2017-09-07T00:26:58.449Z,96.56
2017-09-07T00:27:02.682Z,96.75
2017-09-07T00:27:06.493Z,96.56
2017-09-07T00:27:10.686Z,96.75
2017-09-07T00:27:14.623Z,96.56
2017-09-07T00:27:18.810Z,96.56
2017-09-07T00:27:22.748Z,96.94
2017-09-07T00:27:26.557Z,97.04
2017-09-07T00:27:30.737Z,97.04
2017-09-07T00:27:34.929Z,96.94
2017-09-07T00:27:38.610Z,96.66
2017-09-07T00:27:42.793Z,96.66
2017-09-07T00:27:46.853Z,96.94
2017-09-07T00:27:50.762Z,96.94
2017-09-07T00:27:55.122Z,97.04
2017-09-07T00:27:59.185Z,97.04
2017-09-07T00:28:03.371Z,97.13
2017-09-07T00:28:07.302Z,97.13
2017-09-07T00:28:11.357Z,97.04
2017-09-07T00:28:15.548Z,96.84
2017-09-07T00:28:19.613Z,97.13
2017-09-07T00:28:23.792Z,97.23
2017-09-07T00:28:27.722Z,97.23
2017-09-07T00:28:31.939Z,97.04
2017-09-07T00:28:35.993Z,97.04
2017-09-07T00:28:39.930Z,96.94
2017-09-07T00:28:44.129Z,97.04
2017-09-07T00:28:47.931Z,97.04
2017-09-07T00:28:51.861Z,96.94
2017-09-07T00:28:56.038Z,96.94
2017-09-07T00:28:59.858Z,96.94
2017-09-07T00:29:03.890Z,96.94
2017-09-07T00:29:07.824Z,97.23
2017-09-07T00:29:12.010Z,97.04
2017-09-07T00:29:16.079Z,96.94
2017-09-07T00:29:20.025Z,96.94
2017-09-07T00:29:24.341Z,96.94
2017-09-07T00:29:28.526Z,96.84
2017-09-07T00:29:32.579Z,96.75
2017-09-07T00:29:36.398Z,96.84
2017-09-07T00:29:40.452Z,97.04
2017-09-07T00:29:44.259Z,96.84
2017-09-07T00:29:48.197Z,97.52
2017-09-07T00:29:52.254Z,97.42
2017-09-07T00:29:56.307Z,97.33
2017-09-07T00:30:00.235Z,97.61
2017-09-07T00:30:04.445Z,97.33
2017-09-07T00:30:08.636Z,97.33
2017-09-07T00:30:12.825Z,97.61
2017-09-07T00:30:16.889Z,97.42
2017-09-07T00:30:20.815Z,97.33
2017-09-07T00:30:25.006Z,97.52
2017-09-07T00:30:29.190Z,97.33
2017-09-07T00:30:33.126Z,97.71
2017-09-07T00:30:37.183Z,97.33
2017-09-07T00:30:41.366Z,97.33
2017-09-07T00:30:45.299Z,97.33
2017-09-07T00:30:49.482Z,97.23
2017-09-07T00:30:53.416Z,97.23
2017-09-07T00:30:57.475Z,97.23
2017-09-07T00:31:01.290Z,97.42
2017-09-07T00:31:05.470Z,97.42
2017-09-07T00:31:09.399Z,97.52
2017-09-07T00:31:13.588Z,97.23
2017-09-07T00:31:17.789Z,97.23
2017-09-07T00:31:21.979Z,97.23
2017-09-07T00:31:25.786Z,97.52
2017-09-07T00:31:29.719Z,97.52
2017-09-07T00:31:33.651Z,97.33
2017-09-07T00:31:37.843Z,97.33
2017-09-07T00:31:41.899Z,97.42
2017-09-07T00:31:45.833Z,97.8
2017-09-07T00:31:49.766Z,97.52
2017-09-07T00:31:53.730Z,97.71
2017-09-07T00:31:57.786Z,97.61
2017-09-07T00:32:01.592Z,97.42
2017-09-07T00:32:05.806Z,97.23
2017-09-07T00:32:09.748Z,97.42
2017-09-07T00:32:13.679Z,97.61
2017-09-07T00:32:17.865Z,97.42
2017-09-07T00:32:21.667Z,97.52
2017-09-07T00:32:25.855Z,97.42
2017-09-07T00:32:29.915Z,97.71
2017-09-07T00:32:33.972Z,97.33
2017-09-07T00:32:37.778Z,97.23
2017-09-07T00:32:41.838Z,97.23
2017-09-07T00:32:45.775Z,97.23
2017-09-07T00:32:50.132Z,97.33
2017-09-07T00:32:54.067Z,97.42
2017-09-07T00:32:58.384Z,97.33
2017-09-07T00:33:02.749Z,97.8
2017-09-07T00:33:06.806Z,97.52
2017-09-07T00:33:10.744Z,97.52
2017-09-07T00:33:14.806Z,97.71
2017-09-07T00:33:18.991Z,97.52
2017-09-07T00:33:22.930Z,97.42
2017-09-07T00:33:26.991Z,97.61
2017-09-07T00:33:31.053Z,97.13
2017-09-07T00:33:35.100Z,97.8
2017-09-07T00:33:39.159Z,97.23
2017-09-07T00:33:43.214Z,97.33
2017-09-07T00:33:47.271Z,97.23
2017-09-07T00:33:51.448Z,97.52
2017-09-07T00:33:55.385Z,97.61
2017-09-07T00:33:59.314Z,97.23
2017-09-07T00:34:03.596Z,97.13
2017-09-07T00:34:07.657Z,97.61
2017-09-07T00:34:11.595Z,97.23
2017-09-07T00:34:15.662Z,97.13
2017-09-07T00:34:19.724Z,97.23
2017-09-07T00:34:23.531Z,97.33
2017-09-07T00:34:27.461Z,97.71
2017-09-07T00:34:31.268Z,97.13
2017-09-07T00:34:35.336Z,97.33
2017-09-07T00:34:39.390Z,97.33
2017-09-07T00:34:43.337Z,97.33
2017-09-07T00:34:47.148Z,97.42
2017-09-07T00:34:51.077Z,97.71
2017-09-07T00:34:55.262Z,97.61
2017-09-07T00:34:59.322Z,97.61
2017-09-07T00:35:03.385Z,97.04
2017-09-07T00:35:07.314Z,97.71
2017-09-07T00:35:11.408Z,97.61
2017-09-07T00:35:15.187Z,97.52
2017-09-07T00:35:19.244Z,97.52
2017-09-07T00:35:23.053Z,97.33
2017-09-07T00:35:26.865Z,97.42
2017-09-07T00:35:30.801Z,97.8
2017-09-07T00:35:34.616Z,97.52
2017-09-07T00:35:38.668Z,97.42
2017-09-07T00:35:42.854Z,97.61
2017-09-07T00:35:47.082Z,97.61
2017-09-07T00:35:50.884Z,97.71
2017-09-07T00:35:54.944Z,97.61
2017-09-07T00:35:58.753Z,97.9
2017-09-07T00:36:02.687Z,97.52
2017-09-07T00:36:06.620Z,97.61
2017-09-07T00:36:10.429Z,98.19
2017-09-07T00:36:14.364Z,98
2017-09-07T00:36:18.424Z,98
2017-09-07T00:36:22.731Z,98.09
2017-09-07T00:36:26.541Z,97.52
2017-09-07T00:36:30.468Z,97.8
2017-09-07T00:36:34.400Z,97.9
2017-09-07T00:36:38.469Z,97.9
2017-09-07T00:36:42.278Z,97.9
2017-09-07T00:36:46.330Z,97.9
2017-09-07T00:36:50.386Z,97.42
2017-09-07T00:36:54.453Z,98.19
2017-09-07T00:36:58.143Z,97.61
2017-09-07T00:37:02.402Z,97.61
2017-09-07T00:37:06.339Z,97.71
2017-09-07T00:37:10.567Z,98
2017-09-07T00:37:14.246Z,97.9
2017-09-07T00:37:18.424Z,97.9
2017-09-07T00:37:22.615Z,97.8
2017-09-07T00:37:26.556Z,97.52
2017-09-07T00:37:30.365Z,97.8
2017-09-07T00:37:34.423Z,97.9
2017-09-07T00:37:38.612Z,97.8
2017-09-07T00:37:42.550Z,97.71
2017-09-07T00:37:46.612Z,97.71
2017-09-07T00:37:50.299Z,97.71
2017-09-07T00:37:54.491Z,97.9
2017-09-07T00:37:58.675Z,97.9
2017-09-07T00:38:02.486Z,97.8
2017-09-07T00:38:06.668Z,97.9
2017-09-07T00:38:10.477Z,97.9
2017-09-07T00:38:14.420Z,97.8
2017-09-07T00:38:18.351Z,97.61
2017-09-07T00:38:22.283Z,97.61
2017-09-07T00:38:26.224Z,97.71
2017-09-07T00:38:30.413Z,97.71
2017-09-07T00:38:34.475Z,97.71
2017-09-07T00:38:38.401Z,97.9
2017-09-07T00:38:42.461Z,97.71
2017-09-07T00:38:46.397Z,97.71
2017-09-07T00:38:50.331Z,97.61
2017-09-07T00:38:54.518Z,97.9
2017-09-07T00:38:58.568Z,97.61
2017-09-07T00:39:02.558Z,97.61
2017-09-07T00:39:06.487Z,97.9
2017-09-07T00:39:10.798Z,97.61
2017-09-07T00:39:14.858Z,97.61
2017-09-07T00:39:18.663Z,97.61
2017-09-07T00:39:22.470Z,97.71
2017-09-07T00:39:26.531Z,97.61
2017-09-07T00:39:30.712Z,97.71
2017-09-07T00:39:34.772Z,97.61
2017-09-07T00:39:38.822Z,97.61
2017-09-07T00:39:42.639Z,97.61
2017-09-07T00:39:46.702Z,97.42
2017-09-07T00:39:50.638Z,97.9
2017-09-07T00:39:54.692Z,97.8
2017-09-07T00:39:58.760Z,97.61
2017-09-07T00:40:02.940Z,97.8
2017-09-07T00:40:07.000Z,97.52
2017-09-07T00:40:10.937Z,97.42
2017-09-07T00:40:14.880Z,97.61
2017-09-07T00:40:18.943Z,97.52
2017-09-07T00:40:23.124Z,97.42
2017-09-07T00:40:27.311Z,98.28
2017-09-07T00:40:31.377Z,97.42
2017-09-07T00:40:35.601Z,97.52
2017-09-07T00:40:39.413Z,97.8
2017-09-07T00:40:43.596Z,97.61
2017-09-07T00:40:47.407Z,97.71
2017-09-07T00:40:51.214Z,97.33
2017-09-07T00:40:55.520Z,97.61
2017-09-07T00:40:59.580Z,98
2017-09-07T00:41:03.694Z,98.09
2017-09-07T00:41:07.513Z,98
2017-09-07T00:41:11.603Z,98
2017-09-07T00:41:15.539Z,97.71
2017-09-07T00:41:19.597Z,97.9
2017-09-07T00:41:23.661Z,98.09
2017-09-07T00:41:27.726Z,98
2017-09-07T00:41:31.783Z,98.09
2017-09-07T00:41:35.719Z,98.09
2017-09-07T00:41:39.533Z,98.09
2017-09-07T00:41:43.469Z,98
2017-09-07T00:41:47.279Z,98.09
2017-09-07T00:41:51.212Z,98
2017-09-07T00:41:55.150Z,97.9
2017-09-07T00:41:59.333Z,97.61
2017-09-07T00:42:03.267Z,97.9
2017-09-07T00:42:07.073Z,97.9
2017-09-07T00:42:11.010Z,98.09
2017-09-07T00:42:15.200Z,97.42
2017-09-07T00:42:19.019Z,97.42
2017-09-07T00:42:23.074Z,97.42
2017-09-07T00:42:27.003Z,97.8
2017-09-07T00:42:31.198Z,97.61
2017-09-07T00:42:35.134Z,97.71
2017-09-07T00:42:39.075Z,97.61
2017-09-07T00:42:43.009Z,97.61
2017-09-07T00:42:46.942Z,97.8
2017-09-07T00:42:51.055Z,97.8
2017-09-07T00:42:55.111Z,98
2017-09-07T00:42:59.045Z,98
2017-09-07T00:43:03.232Z,98.09
2017-09-07T00:43:07.291Z,98
2017-09-07T00:43:11.470Z,97.52
2017-09-07T00:43:15.285Z,97.8
2017-09-07T00:43:19.095Z,98.28
2017-09-07T00:43:23.027Z,97.8
2017-09-07T00:43:27.208Z,97.8
2017-09-07T00:43:31.273Z,97.61
2017-09-07T00:43:35.454Z,97.42
2017-09-07T00:43:39.512Z,97.8
2017-09-07T00:43:43.611Z,97.33
2017-09-07T00:43:47.669Z,97.8
2017-09-07T00:43:52.106Z,97.8
2017-09-07T00:43:55.917Z,97.33
2017-09-07T00:43:59.971Z,97.61
2017-09-07T00:44:03.907Z,97.61
2017-09-07T00:44:07.971Z,97.9
2017-09-07T00:44:11.913Z,97.8
2017-09-07T00:44:15.970Z,98.19
2017-09-07T00:44:20.157Z,98.09
2017-09-07T00:44:24.088Z,97.8
2017-09-07T00:44:28.028Z,98.09
2017-09-07T00:44:32.199Z,98
2017-09-07T00:44:36.254Z,98.09
2017-09-07T00:44:40.190Z,97.9
2017-09-07T00:44:44.510Z,98.19
2017-09-07T00:44:48.719Z,98.19
2017-09-07T00:44:52.647Z,98
2017-09-07T00:44:56.584Z,98
2017-09-07T00:45:00.767Z,97.9
2017-09-07T00:45:05.092Z,98.19
2017-09-07T00:45:09.274Z,98
2017-09-07T00:45:13.210Z,98
2017-09-07T00:45:17.023Z,98.09
2017-09-07T00:45:21.204Z,98
2017-09-07T00:45:25.389Z,98.09
2017-09-07T00:45:29.701Z,98
2017-09-07T00:45:33.893Z,98.09
2017-09-07T00:45:38.078Z,97.8
2017-09-07T00:45:42.017Z,97.8
2017-09-07T00:45:45.831Z,98
2017-09-07T00:45:49.894Z,98.09
2017-09-07T00:45:53.957Z,98
2017-09-07T00:45:58.012Z,98.38
2017-09-07T00:46:01.945Z,98.28
2017-09-07T00:46:06.131Z,98.57
2017-09-07T00:46:10.067Z,98.66
2017-09-07T00:46:13.748Z,98.66
2017-09-07T00:46:17.680Z,98.47
2017-09-07T00:46:21.736Z,98.66
2017-09-07T00:46:25.794Z,98.66
2017-09-07T00:46:29.730Z,98.57
2017-09-07T00:46:33.664Z,98.57
2017-09-07T00:46:37.597Z,98.57
2017-09-07T00:46:41.656Z,98.57
2017-09-07T00:46:45.719Z,98.86
2017-09-07T00:46:49.783Z,98.57
2017-09-07T00:46:53.717Z,98.57
2017-09-07T00:46:57.645Z,98.66
2017-09-07T00:47:02.033Z,98.57
2017-09-07T00:47:06.089Z,98.86
2017-09-07T00:47:10.024Z,98.76
2017-09-07T00:47:14.337Z,98.86
2017-09-07T00:47:18.269Z,98.86
2017-09-07T00:47:22.455Z,98.57
2017-09-07T00:47:26.267Z,98
2017-09-07T00:47:30.104Z,98.47
2017-09-07T00:47:34.296Z,97.9
2017-09-07T00:47:38.355Z,98.28
2017-09-07T00:47:42.671Z,97.9
2017-09-07T00:47:46.603Z,98.57
2017-09-07T00:47:50.783Z,98.66
2017-09-07T00:47:54.593Z,98.57
2017-09-07T00:47:58.774Z,98.57
2017-09-07T00:48:02.834Z,98.66
2017-09-07T00:48:06.771Z,98.66
2017-09-07T00:48:10.708Z,98.66
2017-09-07T00:48:14.766Z,98.66
2017-09-07T00:48:18.732Z,98.66
2017-09-07T00:48:22.662Z,98.66
2017-09-07T00:48:26.970Z,98.66
2017-09-07T00:48:31.025Z,98.66
2017-09-07T00:48:34.958Z,98.57
2017-09-07T00:48:38.889Z,98.66
2017-09-07T00:48:42.820Z,98.57
2017-09-07T00:48:46.758Z,98.76
2017-09-07T00:48:50.831Z,98.47
2017-09-07T00:48:54.768Z,98.57
2017-09-07T00:48:59.071Z,98.47
2017-09-07T00:49:03.407Z,98.86
2017-09-07T00:49:07.470Z,98.57
2017-09-07T00:49:11.790Z,98.57
2017-09-07T00:49:15.720Z,98.57
2017-09-07T00:49:20.022Z,98.57
2017-09-07T00:49:24.214Z,98.57
2017-09-07T00:49:28.022Z,98.86
2017-09-07T00:49:32.080Z,98.66
2017-09-07T00:49:36.274Z,98.66
2017-09-07T00:49:40.335Z,98.57
2017-09-07T00:49:44.269Z,98.66
2017-09-07T00:49:48.203Z,98.66
2017-09-07T00:49:52.132Z,98.57
2017-09-07T00:49:56.063Z,98.57
2017-09-07T00:49:59.994Z,98.47
2017-09-07T00:50:03.920Z,98.38
2017-09-07T00:50:08.101Z,98.57
2017-09-07T00:50:12.160Z,98.57
2017-09-07T00:50:16.342Z,98.38
2017-09-07T00:50:20.405Z,98.38
2017-09-07T00:50:24.214Z,98.57
2017-09-07T00:50:28.146Z,98.38
2017-09-07T00:50:32.204Z,98.38
2017-09-07T00:50:36.391Z,98.47
2017-09-07T00:50:40.073Z,98.47
2017-09-07T00:50:44.011Z,98.38
2017-09-07T00:50:47.944Z,98.38
2017-09-07T00:50:52.124Z,98.47
2017-09-07T00:50:56.179Z,98.47
2017-09-07T00:51:00.111Z,98.28
2017-09-07T00:51:04.289Z,98.38
2017-09-07T00:51:08.099Z,98.47
2017-09-07T00:51:12.166Z,98.28
2017-09-07T00:51:16.354Z,98.28
2017-09-07T00:51:20.406Z,98.57
2017-09-07T00:51:24.215Z,98.47
2017-09-07T00:51:28.146Z,98.47
2017-09-07T00:51:32.199Z,98.47
2017-09-07T00:51:36.506Z,98.47
2017-09-07T00:51:40.688Z,98.47
2017-09-07T00:51:44.621Z,98.47
2017-09-07T00:51:48.939Z,98.47
2017-09-07T00:51:52.995Z,98.38
2017-09-07T00:51:57.179Z,98.38
2017-09-07T00:52:01.241Z,98.38
2017-09-07T00:52:05.423Z,98.47
2017-09-07T00:52:09.480Z,98.47
2017-09-07T00:52:13.668Z,98.38
2017-09-07T00:52:17.612Z,98.47